Decoded Metar for LFTH (HYERES in FRANCE) (IATA:TLN) | Meteo·Mobile Aviation Weather
aviador You're here:

LFTH Decoded Metar

HYERES in FRANCE
Report Time2019-07-21 16:30:00
UTC Time2019-07-21 16:54:11
Flight Rules vfr VFR
Wind230° at 10 kt
W.Decomp.*RWY 23: 10.0 kt HW 0.2 kt LCW
RWY 31: 1.6 kt HW 9.9 kt LCW
Visibility9999 m
Phenomena:N/A
Clouds:N/A
Expected CloudBase > 2,800 ft AGL from Temp-Dew spread
CeilingNone
Temp27°C (ISA +12)
Dew Point20°C (66% RH)
Heat Index28.5°C
QNH1019 hPa
Density Alt1,506 ft
Elevation13 ft
Report Wrong Elevation
Raw Report
LFTH 211630Z AUTO 23010KT 9999 ////// 27/20 Q1019=

Extra information for LFTH:More info

Metar Taf Metar & Taf Last 4 Metars F.Rules Stats Wind Profile Meteogram Temp Stats Airport Information Weather charts Add Link Nearby VenuesMetar ALERT Operation Metar Decoded Social comments